Terminal Aerodrome Forecast
Issued by NWS

Current Version | Previous Version | Graphics & Text | Print | Product List | Glossary On
Versions: 1 2 3 4 5 6 7 8 9 10 11 12
743
FTUS41 KPBZ 210520
TAFHLG
TAF
KHLG 210520Z 2106/2206 VRB03KT P6SM SKC
     FM211900 01005KT P6SM BKN150=

USA.gov is the U.S. government's official web portal to all federal, state and local government web resources and services.